Time;durP1;ratioP1;P1;durP2;ratioP2;P2;SDS_P1;SDS_P2;PMS_P1;PMS_P2;Temp;Humidity;BMP_temperature;BMP_pressure;BME280_temperature;BME280_humidity;BME280_pressure;Samples;Min_cycle;Max_cycle;Signal;HPM_P1;HPM_P2
2021/07/02 00:00:49;;;;;;;17.35;7.38;;;16.50;99.90;;;;;;4182380;28;20221;-86
2021/07/02 00:02:49;;;;;;;14.20;7.18;;;16.50;99.90;;;;;;4165853;28;20219;-87
2021/07/02 00:04:50;;;;;;;16.95;7.25;;;16.50;99.90;;;;;;4182714;28;20168;-92
2021/07/02 00:06:51;;;;;;;13.40;7.03;;;16.50;99.90;;;;;;4165895;28;20210;-88
2021/07/02 00:08:52;;;;;;;13.27;6.93;;;16.50;99.90;;;;;;4182442;28;20270;-88
2021/07/02 00:10:54;;;;;;;15.60;7.32;;;16.40;99.90;;;;;;4198933;28;20325;-94
2021/07/02 00:12:54;;;;;;;18.80;7.43;;;16.40;99.90;;;;;;4182017;28;20774;-88
2021/07/02 00:14:55;;;;;;;22.40;8.55;;;16.40;99.90;;;;;;4182320;28;20178;-87
2021/07/02 00:16:56;;;;;;;20.33;8.23;;;16.30;99.90;;;;;;4165929;28;20262;-87
2021/07/02 00:18:57;;;;;;;22.00;7.85;;;16.30;99.90;;;;;;4182158;28;20342;-87
2021/07/02 00:20:58;;;;;;;18.48;7.90;;;16.20;99.90;;;;;;4165467;28;20176;-93
2021/07/02 00:22:58;;;;;;;19.20;8.57;;;16.30;99.90;;;;;;4182010;28;20306;-92
2021/07/02 00:25:01;;;;;;;20.92;8.35;;;16.30;99.90;;;;;;4198328;28;20178;-87
2021/07/02 00:27:01;;;;;;;17.92;8.55;;;16.30;99.90;;;;;;4198198;28;20246;-87
2021/07/02 00:29:03;;;;;;;22.30;8.48;;;16.20;99.90;;;;;;4199717;28;20174;-87
2021/07/02 00:31:04;;;;;;;15.35;7.95;;;16.30;99.90;;;;;;4182050;28;20176;-86
2021/07/02 00:33:05;;;;;;;22.08;8.98;;;16.30;99.90;;;;;;4165408;28;20287;-87
2021/07/02 00:35:06;;;;;;;21.95;8.98;;;16.20;99.90;;;;;;4181074;28;20229;-86
2021/07/02 00:37:07;;;;;;;22.33;9.10;;;16.10;99.90;;;;;;4199209;28;20175;-93
2021/07/02 00:39:08;;;;;;;16.50;8.50;;;16.10;99.90;;;;;;4165888;28;20176;-94
2021/07/02 00:41:09;;;;;;;21.10;8.75;;;16.00;99.90;;;;;;4168234;28;20648;-87
2021/07/02 00:43:10;;;;;;;17.13;8.57;;;16.00;99.90;;;;;;4166896;28;20247;-86
2021/07/02 00:45:11;;;;;;;17.98;8.68;;;16.00;99.90;;;;;;4198338;28;20163;-86
2021/07/02 00:47:12;;;;;;;24.77;8.77;;;16.00;99.90;;;;;;4181772;28;20213;-93
2021/07/02 00:49:13;;;;;;;20.33;8.40;;;16.00;99.90;;;;;;4165239;28;20203;-94
2021/07/02 00:51:14;;;;;;;17.80;8.07;;;15.90;99.90;;;;;;4165162;28;20255;-89
2021/07/02 00:53:16;;;;;;;22.13;8.90;;;15.90;99.90;;;;;;4181601;28;20188;-86
2021/07/02 00:55:17;;;;;;;15.45;8.40;;;15.80;99.90;;;;;;4181607;28;20178;-87
2021/07/02 00:57:18;;;;;;;15.35;8.02;;;15.80;99.90;;;;;;4165156;28;20172;-87
2021/07/02 00:59:19;;;;;;;16.65;7.95;;;15.80;99.90;;;;;;4164842;28;20176;-87
2021/07/02 01:01:20;;;;;;;20.88;8.20;;;15.70;99.90;;;;;;4165108;28;20164;-87
2021/07/02 01:03:23;;;;;;;18.55;8.00;;;15.70;99.90;;;;;;4165302;28;20238;-89
2021/07/02 01:05:24;;;;;;;22.13;8.07;;;15.70;99.90;;;;;;4165184;28;20167;-87
2021/07/02 01:07:28;;;;;;;17.33;8.20;;;15.70;99.90;;;;;;4165488;28;20257;-92
2021/07/02 01:09:30;;;;;;;17.63;8.65;;;15.80;99.90;;;;;;4197883;28;20190;-86
2021/07/02 01:11:32;;;;;;;20.88;8.55;;;15.90;99.90;;;;;;4165192;28;20258;-87
2021/07/02 01:13:34;;;;;;;23.42;7.85;;;15.90;99.90;;;;;;4181293;28;20286;-87
2021/07/02 01:15:35;;;;;;;18.45;8.10;;;16.00;99.90;;;;;;4165215;28;20564;-87
2021/07/02 01:17:43;;;;;;;18.88;7.88;;;16.00;99.90;;;;;;4165876;28;20298;-90
2021/07/02 01:19:46;;;;;;;14.32;7.50;;;16.00;99.90;;;;;;4181541;28;20187;-91
2021/07/02 01:21:46;;;;;;;16.55;7.55;;;16.00;99.90;;;;;;4164793;28;20165;-87
2021/07/02 01:23:51;;;;;;;16.95;7.40;;;16.00;99.90;;;;;;4181328;28;20195;-95
2021/07/02 01:25:51;;;;;;;27.52;8.40;;;16.00;99.90;;;;;;4164621;28;20533;-91
2021/07/02 01:27:52;;;;;;;14.63;7.50;;;15.90;99.90;;;;;;4164567;28;20208;-92
2021/07/02 01:29:53;;;;;;;17.55;8.27;;;16.00;99.90;;;;;;4164684;28;20176;-94
2021/07/02 01:31:54;;;;;;;17.25;7.53;;;16.00;99.90;;;;;;4181087;28;20175;-87
2021/07/02 01:33:55;;;;;;;17.10;7.63;;;16.00;99.90;;;;;;4181103;28;20206;-87
2021/07/02 01:36:04;;;;;;;14.93;6.88;;;16.00;99.90;;;;;;4164611;28;20176;-86
2021/07/02 01:38:05;;;;;;;18.92;8.10;;;16.10;99.90;;;;;;4197631;28;20668;-87
2021/07/02 01:40:07;;;;;;;18.15;7.22;;;16.10;99.90;;;;;;4181089;28;20659;-87
2021/07/02 01:42:11;;;;;;;16.48;7.28;;;16.10;99.90;;;;;;4164748;28;20178;-87
2021/07/02 01:44:13;;;;;;;18.35;8.25;;;16.10;99.90;;;;;;4164741;28;20233;-89
2021/07/02 01:46:15;;;;;;;13.10;6.78;;;16.00;99.90;;;;;;4181378;28;20183;-87
2021/07/02 01:48:17;;;;;;;13.40;7.63;;;16.00;99.90;;;;;;4186510;28;20249;-91
2021/07/02 01:50:18;;;;;;;18.20;8.02;;;16.00;99.90;;;;;;4165100;28;20660;-93
2021/07/02 01:52:18;;;;;;;15.00;7.90;;;16.00;99.90;;;;;;4181561;28;20168;-89
2021/07/02 01:54:19;;;;;;;20.48;8.18;;;16.00;99.90;;;;;;4181090;28;20235;-87
2021/07/02 01:56:21;;;;;;;20.25;7.60;;;16.10;99.90;;;;;;4181429;28;20168;-87
2021/07/02 01:58:24;;;;;;;22.80;8.55;;;16.10;99.90;;;;;;4164787;28;20662;-87
2021/07/02 02:00:36;;;;;;;18.30;7.30;;;16.10;99.90;;;;;;4165855;28;20172;-89
2021/07/02 02:02:43;;;;;;;16.85;7.70;;;16.10;99.90;;;;;;4165025;28;20196;-87
2021/07/02 02:04:47;;;;;;;20.00;7.75;;;16.10;99.90;;;;;;4181162;28;20698;-93
2021/07/02 02:06:48;;;;;;;16.27;7.47;;;16.00;99.90;;;;;;4164392;28;20259;-87
2021/07/02 02:08:49;;;;;;;13.20;7.13;;;16.10;99.90;;;;;;4165056;28;20263;-86
2021/07/02 02:10:53;;;;;;;13.27;7.30;;;16.10;99.90;;;;;;4164743;28;20680;-96
2021/07/02 02:12:57;;;;;;;18.17;7.07;;;16.10;99.90;;;;;;4164782;28;20219;-87
2021/07/02 02:14:59;;;;;;;16.98;7.03;;;16.10;99.90;;;;;;4164377;28;20703;-94
2021/07/02 02:17:02;;;;;;;12.57;6.68;;;16.10;99.90;;;;;;4180852;28;20605;-93
2021/07/02 02:19:04;;;;;;;13.40;6.65;;;16.00;99.90;;;;;;4197602;28;20174;-93
2021/07/02 02:21:04;;;;;;;16.08;6.63;;;16.00;99.90;;;;;;4164288;28;20168;-94
2021/07/02 02:23:07;;;;;;;14.32;7.05;;;16.00;99.90;;;;;;4180894;28;20249;-93
2021/07/02 02:25:09;;;;;;;19.33;6.32;;;16.00;99.90;;;;;;4164297;28;20270;-94
2021/07/02 02:27:11;;;;;;;15.48;6.15;;;16.00;99.90;;;;;;4164187;28;20172;-86
2021/07/02 02:29:12;;;;;;;15.30;6.07;;;16.00;99.90;;;;;;4180825;28;20176;-94
2021/07/02 02:31:14;;;;;;;11.90;5.47;;;15.90;99.90;;;;;;4164286;28;20405;-87
2021/07/02 02:33:17;;;;;;;11.45;5.72;;;16.00;99.90;;;;;;4180498;28;20282;-87
2021/07/02 02:35:18;;;;;;;9.80;6.20;;;16.00;99.90;;;;;;4180936;28;20167;-86
2021/07/02 02:37:19;;;;;;;12.25;6.50;;;16.00;99.90;;;;;;4164063;28;20192;-93
2021/07/02 02:39:20;;;;;;;11.38;5.50;;;16.00;99.90;;;;;;4180611;28;20204;-94
2021/07/02 02:41:22;;;;;;;11.13;5.80;;;16.10;99.90;;;;;;4180609;28;20191;-96
2021/07/02 02:43:22;;;;;;;11.48;5.97;;;16.10;99.90;;;;;;4197305;28;20191;-94
2021/07/02 02:45:23;;;;;;;16.25;6.50;;;16.00;99.90;;;;;;4164536;28;20168;-91
2021/07/02 02:47:25;;;;;;;15.68;6.22;;;16.00;99.90;;;;;;4186770;28;20202;-87
2021/07/02 02:49:26;;;;;;;12.52;6.15;;;16.00;99.90;;;;;;4167069;28;20544;-92
2021/07/02 02:51:27;;;;;;;9.85;5.90;;;15.90;99.90;;;;;;4164158;28;20172;-90
2021/07/02 02:53:28;;;;;;;16.05;6.40;;;15.90;99.90;;;;;;4164103;28;20196;-93
2021/07/02 02:55:29;;;;;;;11.90;6.03;;;15.90;99.90;;;;;;4164115;28;20196;-95
2021/07/02 02:57:30;;;;;;;17.10;6.43;;;15.90;99.90;;;;;;4164947;28;20195;-93
2021/07/02 02:59:34;;;;;;;13.55;6.10;;;15.80;99.90;;;;;;4183530;28;20193;-95
2021/07/02 03:01:36;;;;;;;15.90;6.72;;;15.80;99.90;;;;;;4183643;28;20176;-88
2021/07/02 03:03:37;;;;;;;10.68;6.13;;;15.80;99.90;;;;;;4199798;28;20195;-95
2021/07/02 03:05:38;;;;;;;14.93;6.22;;;15.70;99.90;;;;;;4166968;28;20679;-94
2021/07/02 03:07:42;;;;;;;14.50;5.97;;;15.60;99.90;;;;;;4166939;28;20214;-94
2021/07/02 03:09:45;;;;;;;13.07;6.35;;;15.60;99.90;;;;;;4199798;28;20206;-94
2021/07/02 03:11:50;;;;;;;14.25;5.93;;;15.50;99.90;;;;;;4200130;28;20171;-94
2021/07/02 03:13:51;;;;;;;11.52;5.88;;;15.50;99.90;;;;;;4183677;28;20191;-95
2021/07/02 03:15:54;;;;;;;13.45;6.03;;;15.40;99.90;;;;;;4199815;28;20179;-87
2021/07/02 03:17:56;;;;;;;15.07;6.07;;;15.40;99.90;;;;;;4183414;28;20738;-87
2021/07/02 03:19:57;;;;;;;9.77;5.50;;;15.30;99.90;;;;;;4199663;28;20174;-93
2021/07/02 03:21:59;;;;;;;12.15;6.47;;;15.40;99.90;;;;;;4166712;28;20181;-87
2021/07/02 03:24:00;;;;;;;13.20;6.47;;;15.40;99.90;;;;;;4166630;28;20620;-87
2021/07/02 03:26:01;;;;;;;11.52;6.03;;;15.40;99.90;;;;;;4182941;28;20222;-87
2021/07/02 03:28:04;;;;;;;16.88;6.32;;;15.40;99.90;;;;;;4183015;28;20679;-93
2021/07/02 03:30:08;;;;;;;15.15;6.22;;;15.30;99.90;;;;;;4183167;28;20168;-95
2021/07/02 03:32:13;;;;;;;14.13;6.50;;;15.20;99.90;;;;;;4199186;28;20178;-93
2021/07/02 03:34:18;;;;;;;10.50;5.75;;;15.20;99.90;;;;;;4167325;28;20195;-95
2021/07/02 03:36:19;;;;;;;16.45;5.70;;;15.20;99.90;;;;;;4167034;28;20179;-88
2021/07/02 03:38:21;;;;;;;16.75;6.55;;;15.30;99.90;;;;;;4183216;28;20208;-94
2021/07/02 03:40:22;;;;;;;11.43;5.90;;;15.30;99.90;;;;;;4182867;28;20182;-94
2021/07/02 03:42:29;;;;;;;17.58;7.15;;;15.20;99.90;;;;;;4182735;28;20175;-93
2021/07/02 03:44:29;;;;;;;12.45;7.20;;;15.20;99.90;;;;;;4183069;28;20164;-96
2021/07/02 03:46:31;;;;;;;16.02;6.25;;;15.20;99.90;;;;;;4170751;28;20172;-87
2021/07/02 03:48:33;;;;;;;15.90;5.88;;;15.10;99.90;;;;;;4171447;28;20545;-87
2021/07/02 03:50:33;;;;;;;16.65;6.82;;;15.10;99.90;;;;;;4165992;28;20283;-87
2021/07/02 03:52:35;;;;;;;13.95;6.72;;;15.10;99.90;;;;;;4182644;28;20249;-86
2021/07/02 03:54:36;;;;;;;15.38;6.45;;;15.10;99.90;;;;;;4166183;28;20168;-87
2021/07/02 03:56:36;;;;;;;16.92;6.63;;;15.10;99.90;;;;;;4166536;28;20180;-88
2021/07/02 03:58:38;;;;;;;11.90;6.45;;;15.10;99.90;;;;;;4182595;28;20168;-87
2021/07/02 04:00:39;;;;;;;12.13;6.32;;;15.10;99.90;;;;;;4165924;28;20175;-87
2021/07/02 04:02:39;;;;;;;14.48;6.13;;;15.10;99.90;;;;;;4182461;28;20219;-88
2021/07/02 04:04:41;;;;;;;18.05;6.60;;;15.20;99.90;;;;;;4182416;28;20172;-87
2021/07/02 04:06:42;;;;;;;15.27;6.55;;;15.20;99.90;;;;;;4199146;28;20209;-94
2021/07/02 04:08:42;;;;;;;12.10;7.10;;;15.20;99.90;;;;;;4165961;28;20215;-94
2021/07/02 04:10:43;;;;;;;17.38;7.00;;;15.20;99.90;;;;;;4182508;28;20285;-94
2021/07/02 04:12:44;;;;;;;16.50;6.82;;;15.30;99.90;;;;;;4165622;28;20204;-87
2021/07/02 04:14:44;;;;;;;24.98;7.45;;;15.30;99.90;;;;;;4182435;28;20167;-90
2021/07/02 04:16:46;;;;;;;17.17;7.20;;;15.40;99.90;;;;;;4165704;28;20218;-87
2021/07/02 04:18:46;;;;;;;16.60;7.45;;;15.50;99.90;;;;;;4165977;28;20664;-96
2021/07/02 04:20:47;;;;;;;15.57;6.63;;;15.60;99.90;;;;;;4166142;28;20660;-94
2021/07/02 04:22:48;;;;;;;19.60;6.68;;;15.60;99.90;;;;;;4165842;28;20188;-95
2021/07/02 04:24:49;;;;;;;14.70;7.22;;;15.70;99.90;;;;;;4182553;28;20175;-94
2021/07/02 04:26:50;;;;;;;13.95;6.63;;;15.60;99.90;;;;;;4165919;28;20223;-95
2021/07/02 04:28:51;;;;;;;16.20;7.18;;;15.60;99.90;;;;;;4165654;28;20212;-87
2021/07/02 04:30:51;;;;;;;15.93;6.85;;;15.60;99.90;;;;;;4165518;28;20164;-87
2021/07/02 04:32:52;;;;;;;16.90;6.88;;;15.60;99.90;;;;;;4181856;28;20203;-95
2021/07/02 04:34:53;;;;;;;13.52;6.90;;;15.60;99.90;;;;;;4165526;28;20338;-90
2021/07/02 04:36:54;;;;;;;13.20;7.05;;;15.60;99.90;;;;;;4165771;28;20179;-93
2021/07/02 04:38:56;;;;;;;16.60;7.50;;;15.60;99.90;;;;;;4166035;28;20168;-88
2021/07/02 04:40:56;;;;;;;16.95;7.15;;;15.50;99.90;;;;;;4190810;28;20172;-92
2021/07/02 04:42:57;;;;;;;17.77;7.00;;;15.50;99.90;;;;;;4167341;28;20239;-87
2021/07/02 04:44:58;;;;;;;17.83;6.82;;;15.50;99.90;;;;;;4181892;28;20179;-86
2021/07/02 04:46:58;;;;;;;13.18;6.95;;;15.40;99.90;;;;;;4181655;28;20183;-89
2021/07/02 04:48:59;;;;;;;13.93;7.03;;;15.50;99.90;;;;;;4165232;28;20184;-92
2021/07/02 04:51:00;;;;;;;13.35;6.90;;;15.50;99.90;;;;;;4198184;28;20685;-87
2021/07/02 04:53:01;;;;;;;20.17;7.40;;;15.50;99.90;;;;;;4165273;28;20688;-87
2021/07/02 04:55:03;;;;;;;17.88;7.22;;;15.70;99.90;;;;;;4165235;28;20172;-86
2021/07/02 04:57:04;;;;;;;21.00;7.72;;;15.70;99.90;;;;;;4165005;28;20230;-87
2021/07/02 04:59:04;;;;;;;13.07;6.72;;;15.80;99.90;;;;;;4181829;28;20222;-87
2021/07/02 05:01:05;;;;;;;13.07;7.22;;;16.00;99.90;;;;;;4165201;28;20176;-87
2021/07/02 05:03:06;;;;;;;14.02;6.97;;;16.10;99.90;;;;;;4181423;28;20187;-88
2021/07/02 05:05:07;;;;;;;16.65;7.40;;;16.20;99.90;;;;;;4182028;28;20171;-87
2021/07/02 05:07:08;;;;;;;18.10;7.57;;;16.20;99.90;;;;;;4164972;28;20184;-95
2021/07/02 05:09:09;;;;;;;16.08;7.13;;;16.20;99.90;;;;;;4181384;28;20190;-87
2021/07/02 05:11:11;;;;;;;18.73;7.68;;;16.20;99.90;;;;;;4165636;28;20168;-87
2021/07/02 05:13:11;;;;;;;13.82;7.45;;;16.20;99.90;;;;;;4181775;28;20191;-88
2021/07/02 05:15:12;;;;;;;15.88;7.95;;;16.30;99.90;;;;;;4165029;28;20258;-95
2021/07/02 05:17:13;;;;;;;13.27;7.10;;;16.40;99.90;;;;;;4164744;28;20184;-87
2021/07/02 05:19:14;;;;;;;18.25;8.02;;;16.50;99.90;;;;;;4181677;28;20160;-95
2021/07/02 05:21:15;;;;;;;10.77;6.95;;;16.50;99.90;;;;;;4180853;28;20176;-95
2021/07/02 05:23:16;;;;;;;21.00;8.13;;;16.50;99.90;;;;;;4164753;28;20664;-95
2021/07/02 05:25:18;;;;;;;16.05;7.55;;;16.50;99.90;;;;;;4181441;28;20203;-93
2021/07/02 05:27:19;;;;;;;18.80;7.53;;;16.50;99.90;;;;;;4181309;28;20202;-93
2021/07/02 05:29:20;;;;;;;18.98;8.07;;;16.50;99.90;;;;;;4164995;28;20263;-87
2021/07/02 05:31:20;;;;;;;15.90;7.97;;;16.40;99.90;;;;;;4164677;28;20168;-86
2021/07/02 05:33:21;;;;;;;22.00;8.35;;;16.40;99.90;;;;;;4181044;28;20699;-93
2021/07/02 05:35:22;;;;;;;19.30;8.38;;;16.30;99.90;;;;;;4164735;28;20694;-94
2021/07/02 05:37:22;;;;;;;21.15;8.00;;;16.30;99.90;;;;;;4164664;28;20168;-86
2021/07/02 05:39:23;;;;;;;16.55;8.07;;;16.30;99.90;;;;;;4181895;28;20167;-87
2021/07/02 05:41:24;;;;;;;12.02;8.05;;;16.30;99.90;;;;;;4166272;28;20634;-87
2021/07/02 05:43:25;;;;;;;14.65;8.27;;;16.30;99.90;;;;;;4164560;28;20196;-92
2021/07/02 05:45:26;;;;;;;19.05;9.05;;;16.30;99.90;;;;;;4164564;28;20267;-88
2021/07/02 05:47:27;;;;;;;20.98;8.73;;;16.30;99.90;;;;;;4180852;28;20214;-87
2021/07/02 05:49:27;;;;;;;17.88;8.52;;;16.30;99.90;;;;;;4164565;28;20172;-87
2021/07/02 05:51:28;;;;;;;23.05;8.80;;;16.50;99.90;;;;;;4164584;28;20629;-91
2021/07/02 05:53:29;;;;;;;16.50;8.82;;;16.50;99.90;;;;;;4180749;28;20276;-92
2021/07/02 05:55:30;;;;;;;15.65;8.82;;;16.70;99.90;;;;;;4164340;28;20242;-88
2021/07/02 05:57:30;;;;;;;19.48;9.73;;;16.80;99.90;;;;;;4180841;28;20175;-87
2021/07/02 05:59:31;;;;;;;18.60;9.80;;;16.90;99.90;;;;;;4164277;28;20218;-93
2021/07/02 06:01:32;;;;;;;16.88;9.40;;;17.10;99.90;;;;;;4184594;28;20248;-92
2021/07/02 06:03:33;;;;;;;19.42;9.10;;;17.10;99.90;;;;;;4165674;28;20192;-86
2021/07/02 06:05:36;;;;;;;15.07;9.63;;;17.20;99.90;;;;;;4164779;28;20200;-86
2021/07/02 06:07:44;;;;;;;21.63;9.32;;;17.30;99.90;;;;;;4164478;28;20774;-93
2021/07/02 06:09:44;;;;;;;17.98;9.43;;;17.50;99.90;;;;;;4197510;28;20186;-86
2021/07/02 06:11:45;;;;;;;22.58;9.65;;;17.40;99.90;;;;;;4180966;28;20167;-93
2021/07/02 06:13:46;;;;;;;19.65;10.63;;;17.40;99.90;;;;;;4197300;28;20696;-86
2021/07/02 06:15:47;;;;;;;30.30;11.82;;;17.60;99.90;;;;;;4164126;28;20222;-86
2021/07/02 06:17:49;;;;;;;24.63;11.63;;;17.80;99.90;;;;;;4164495;28;20180;-92
2021/07/02 06:19:49;;;;;;;19.50;10.57;;;18.00;99.90;;;;;;4180782;28;20172;-88
2021/07/02 06:21:50;;;;;;;17.27;10.63;;;18.00;99.90;;;;;;4180726;28;20182;-88
2021/07/02 06:23:51;;;;;;;18.92;10.60;;;18.00;99.90;;;;;;4180702;28;20191;-87
2021/07/02 06:25:51;;;;;;;24.52;11.18;;;18.10;99.90;;;;;;4180767;28;20214;-86
2021/07/02 06:27:52;;;;;;;25.13;12.13;;;18.10;99.90;;;;;;4164228;28;20674;-94
2021/07/02 06:29:53;;;;;;;24.15;11.60;;;18.20;99.90;;;;;;4180960;28;20175;-92
2021/07/02 06:31:54;;;;;;;27.90;12.68;;;18.40;99.90;;;;;;4164205;28;20251;-92
2021/07/02 06:33:54;;;;;;;25.75;12.85;;;18.50;99.90;;;;;;4183739;28;20203;-91
2021/07/02 06:35:55;;;;;;;23.52;12.05;;;18.60;99.90;;;;;;4167303;28;20172;-92
2021/07/02 06:37:56;;;;;;;31.10;12.32;;;18.50;99.90;;;;;;4167183;28;20179;-92
2021/07/02 06:39:56;;;;;;;23.40;12.32;;;18.70;99.90;;;;;;4183816;28;20163;-91
2021/07/02 06:41:57;;;;;;;21.92;12.68;;;19.00;99.90;;;;;;4167063;28;20176;-91
2021/07/02 06:43:58;;;;;;;30.13;12.98;;;19.20;99.90;;;;;;4166919;28;20194;-93
2021/07/02 06:45:58;;;;;;;22.77;13.02;;;19.50;99.90;;;;;;4167275;28;20180;-92
2021/07/02 06:48:01;;;;;;;29.30;14.98;;;19.80;99.90;;;;;;4166862;28;20604;-91
2021/07/02 06:50:02;;;;;;;25.88;14.25;;;20.10;99.90;;;;;;4167060;28;20589;-92
2021/07/02 06:52:03;;;;;;;26.52;13.63;;;20.50;99.90;;;;;;4183872;28;20176;-92
2021/07/02 06:54:04;;;;;;;26.98;13.52;;;20.90;99.90;;;;;;4183712;28;20203;-92
2021/07/02 06:56:08;;;;;;;24.17;12.82;;;21.20;99.90;;;;;;4183828;28;20175;-91
2021/07/02 06:58:09;;;;;;;24.35;13.20;;;21.50;99.90;;;;;;4183605;28;20221;-87
2021/07/02 07:00:10;;;;;;;22.58;13.60;;;21.60;99.90;;;;;;4167022;28;20172;-87
2021/07/02 07:02:12;;;;;;;19.73;12.23;;;21.60;99.90;;;;;;4166895;28;20179;-88
2021/07/02 07:04:13;;;;;;;23.38;13.20;;;21.70;99.90;;;;;;4166913;28;20239;-86
2021/07/02 07:06:14;;;;;;;29.35;14.05;;;21.90;99.90;;;;;;4183308;28;20176;-86
2021/07/02 07:08:14;;;;;;;24.98;13.07;;;22.10;99.90;;;;;;4166603;28;20207;-87
2021/07/02 07:10:15;;;;;;;25.48;13.57;;;21.80;99.90;;;;;;4183001;28;20215;-87
2021/07/02 07:12:16;;;;;;;31.02;13.98;;;22.00;99.90;;;;;;4166319;28;20172;-87
2021/07/02 07:14:16;;;;;;;26.60;13.63;;;22.10;99.90;;;;;;4183313;28;20180;-87
2021/07/02 07:16:17;;;;;;;26.52;13.63;;;21.90;99.90;;;;;;4166458;28;20232;-87
2021/07/02 07:18:18;;;;;;;22.98;12.75;;;21.90;99.90;;;;;;4183021;28;20176;-93
2021/07/02 07:20:19;;;;;;;26.30;13.57;;;21.90;99.90;;;;;;4182987;28;20175;-87
2021/07/02 07:22:20;;;;;;;30.65;14.45;;;21.90;99.90;;;;;;4199602;28;20504;-87
2021/07/02 07:24:20;;;;;;;27.05;13.40;;;21.90;99.90;;;;;;4166647;28;20168;-87
2021/07/02 07:26:21;;;;;;;31.90;13.88;;;22.10;99.90;;;;;;4182870;28;20570;-87
2021/07/02 07:28:22;;;;;;;27.80;13.25;;;23.00;99.90;;;;;;4166627;28;20200;-93
2021/07/02 07:30:23;;;;;;;20.33;12.75;;;24.80;99.90;;;;;;4183262;28;20199;-93
2021/07/02 07:32:24;;;;;;;23.05;12.88;;;26.70;99.90;;;;;;4166494;28;20168;-88
2021/07/02 07:34:42;;;;;;;23.40;12.57;;;28.30;99.90;;;;;;4182728;28;20183;-87
2021/07/02 07:36:42;;;;;;;21.27;12.90;;;28.40;99.90;;;;;;4182875;28;20190;-87
2021/07/02 07:38:43;;;;;;;22.45;12.60;;;28.70;99.90;;;;;;4199612;28;20171;-88
2021/07/02 07:40:44;;;;;;;22.52;12.80;;;29.00;99.90;;;;;;4166592;28;20637;-93
2021/07/02 07:42:44;;;;;;;24.92;12.38;;;28.80;99.90;;;;;;4182735;28;20508;-88
2021/07/02 07:44:45;;;;;;;20.25;12.65;;;28.40;99.90;;;;;;4165911;28;20262;-94
2021/07/02 07:46:46;;;;;;;26.35;12.43;;;28.50;99.90;;;;;;4199508;28;20178;-93
2021/07/02 07:48:47;;;;;;;20.45;12.25;;;29.30;99.90;;;;;;4165786;28;20208;-94
2021/07/02 07:50:51;;;;;;;18.85;11.95;;;30.40;99.90;;;;;;4182536;28;20550;-87
2021/07/02 07:52:58;;;;;;;18.48;12.65;;;31.50;99.90;;;;;;4166044;28;20192;-93
2021/07/02 07:54:59;;;;;;;20.70;12.65;;;32.30;99.90;;;;;;4166064;28;20174;-89
2021/07/02 07:57:00;;;;;;;21.48;12.30;;;32.80;99.90;;;;;;4165954;28;20652;-89
2021/07/02 07:59:00;;;;;;;24.63;11.70;;;32.20;99.90;;;;;;4182460;28;20175;-92
2021/07/02 08:01:01;;;;;;;25.90;12.65;;;32.60;99.90;;;;;;4166329;28;20175;-91
2021/07/02 08:03:03;;;;;;;18.00;10.93;;;33.20;99.90;;;;;;4166051;28;20207;-94
2021/07/02 08:05:05;;;;;;;16.38;11.50;;;32.50;99.90;;;;;;4166125;28;20172;-94
2021/07/02 08:07:05;;;;;;;16.58;11.02;;;32.50;99.90;;;;;;4182722;28;20179;-93
2021/07/02 08:09:06;;;;;;;15.20;10.18;;;32.60;99.90;;;;;;4166784;28;20533;-91
2021/07/02 08:11:07;;;;;;;17.95;10.65;;;33.10;99.90;;;;;;4166239;28;20210;-93
2021/07/02 08:13:08;;;;;;;17.33;10.80;;;32.60;99.90;;;;;;4165853;28;20206;-95
2021/07/02 08:15:10;;;;;;;18.15;10.95;;;32.90;99.90;;;;;;4182440;28;20254;-91
2021/07/02 08:17:11;;;;;;;22.63;10.95;;;32.10;99.90;;;;;;4182239;28;20209;-91
2021/07/02 08:19:11;;;;;;;15.52;11.15;;;31.70;99.90;;;;;;4165769;28;20159;-94
2021/07/02 08:21:12;;;;;;;21.00;10.80;;;30.80;99.90;;;;;;4166030;28;20175;-89
2021/07/02 08:23:13;;;;;;;20.48;10.88;;;30.60;99.90;;;;;;4182170;28;20219;-94
2021/07/02 08:25:14;;;;;;;18.08;10.00;;;31.50;99.90;;;;;;4182123;28;20625;-94
2021/07/02 08:27:15;;;;;;;20.00;11.15;;;32.30;99.90;;;;;;4165710;28;20168;-93
2021/07/02 08:29:28;;;;;;;18.65;10.85;;;32.10;99.90;;;;;;4165689;28;20719;-91
2021/07/02 08:31:29;;;;;;;14.82;9.35;;;32.60;99.90;;;;;;4165628;28;20171;-92
2021/07/02 08:33:30;;;;;;;16.65;8.27;;;33.30;99.90;;;;;;4165886;28;20198;-90
2021/07/02 08:35:31;;;;;;;17.00;8.63;;;34.20;99.90;;;;;;4182049;28;20159;-94
2021/07/02 08:37:34;;;;;;;17.67;8.10;;;34.50;99.90;;;;;;4165338;28;20175;-91
2021/07/02 08:39:34;;;;;;;14.68;8.60;;;34.50;99.90;;;;;;4182115;28;20179;-96
2021/07/02 08:41:39;;;;;;;13.57;7.25;;;34.40;99.90;;;;;;4181764;28;20183;-95
2021/07/02 08:43:41;;;;;;;13.95;8.23;;;34.40;99.90;;;;;;4181711;28;20201;-95
2021/07/02 08:45:44;;;;;;;12.45;8.20;;;31.30;99.90;;;;;;4181954;28;20270;-94
2021/07/02 08:47:45;;;;;;;20.75;9.02;;;29.50;99.90;;;;;;4165333;28;20644;-94
2021/07/02 08:49:47;;;;;;;17.08;7.80;;;28.00;99.90;;;;;;4182006;28;20233;-89
2021/07/02 08:51:48;;;;;;;17.67;8.55;;;28.60;99.90;;;;;;4165417;28;20191;-94
2021/07/02 08:53:49;;;;;;;13.40;8.48;;;29.50;99.90;;;;;;4165263;28;20207;-94
2021/07/02 08:55:50;;;;;;;14.07;9.65;;;29.50;99.90;;;;;;4164627;28;20168;-94
2021/07/02 08:57:51;;;;;;;14.68;8.20;;;28.00;99.90;;;;;;4165366;28;20204;-91
2021/07/02 08:59:52;;;;;;;13.30;8.93;;;28.40;99.90;;;;;;4181735;28;20217;-95
2021/07/02 09:01:53;;;;;;;18.20;8.10;;;28.60;99.90;;;;;;4165155;28;20173;-91
2021/07/02 09:03:54;;;;;;;15.82;8.18;;;28.40;99.90;;;;;;4165209;28;20184;-91
2021/07/02 09:06:14;;;;;;;14.80;8.40;;;28.70;99.90;;;;;;4165905;28;20568;-95
2021/07/02 09:08:16;;;;;;;19.40;8.88;;;29.80;99.90;;;;;;4165892;28;20223;-93
2021/07/02 09:10:17;;;;;;;17.77;9.35;;;30.70;99.90;;;;;;4165263;28;20659;-95
2021/07/02 09:12:24;;;;;;;18.90;10.00;;;30.40;99.90;;;;;;4181192;28;20171;-92
2021/07/02 09:14:25;;;;;;;18.38;8.93;;;28.90;99.90;;;;;;4181194;28;20277;-95
2021/07/02 09:16:51;;;;;;;12.35;7.85;;;27.80;99.90;;;;;;4164844;28;20172;-93
2021/07/02 09:18:53;;;;;;;9.90;6.38;;;27.00;99.90;;;;;;4181259;28;20215;-88
2021/07/02 09:20:55;;;;;;;13.80;6.32;;;26.80;99.90;;;;;;4164438;28;20706;-94
2021/07/02 09:22:58;;;;;;;13.80;7.85;;;26.00;99.90;;;;;;4181275;28;20243;-93
2021/07/02 09:24:59;;;;;;;12.43;7.20;;;26.30;99.90;;;;;;4179545;28;20164;-89
2021/07/02 09:26:59;;;;;;;10.43;6.15;;;26.50;99.90;;;;;;4181029;28;20258;-91
2021/07/02 09:29:24;;;;;;;11.82;6.93;;;27.10;99.90;;;;;;4165396;28;20172;-95
2021/07/02 09:31:35;;;;;;;10.40;6.65;;;27.50;99.90;;;;;;4164950;28;20176;-96
2021/07/02 09:33:36;;;;;;;12.38;6.78;;;27.70;99.90;;;;;;4164963;28;20192;-92
2021/07/02 09:35:50;;;;;;;11.07;6.63;;;28.40;99.90;;;;;;4164356;28;20172;-94
2021/07/02 09:37:57;;;;;;;15.15;6.55;;;29.30;99.90;;;;;;4147964;28;20756;-89
2021/07/02 09:40:10;;;;;;;12.18;5.85;;;29.70;99.90;;;;;;4148405;28;20173;-94
2021/07/02 09:42:22;;;;;;;12.13;6.53;;;30.30;99.90;;;;;;4148425;28;20161;-91
2021/07/02 09:44:23;;;;;;;10.63;6.30;;;29.30;99.90;;;;;;4148265;28;20242;-91
2021/07/02 09:46:31;;;;;;;9.77;6.55;;;28.20;99.90;;;;;;4148276;28;20173;-92
2021/07/02 09:48:41;;;;;;;12.25;6.32;;;27.10;99.90;;;;;;4178314;28;20171;-92
2021/07/02 09:50:47;;;;;;;13.50;6.63;;;27.60;99.90;;;;;;4182431;28;20182;-95
2021/07/02 09:52:59;;;;;;;9.68;6.28;;;27.20;99.90;;;;;;4181213;28;20199;-92
2021/07/02 09:55:04;;;;;;;11.68;6.03;;;26.60;99.90;;;;;;4148100;28;20257;-91
2021/07/02 09:57:17;;;;;;;9.73;6.00;;;26.70;99.90;;;;;;4174424;28;20234;-95
2021/07/02 09:59:18;;;;;;;11.13;5.43;;;28.00;99.90;;;;;;4158677;28;20268;-90
2021/07/02 10:01:27;;;;;;;14.32;6.18;;;29.00;99.90;;;;;;4148063;28;20181;-90
2021/07/02 10:03:33;;;;;;;12.38;6.47;;;29.40;99.90;;;;;;4164103;28;20196;-95
2021/07/02 10:05:46;;;;;;;13.40;5.72;;;29.30;99.90;;;;;;4164627;28;20223;-92
2021/07/02 10:07:59;;;;;;;8.60;5.60;;;30.00;99.90;;;;;;4167707;28;20171;-93
2021/07/02 10:09:59;;;;;;;12.02;5.45;;;29.40;99.90;;;;;;4168194;28;20270;-90
2021/07/02 10:12:00;;;;;;;10.45;5.82;;;27.50;99.90;;;;;;4184556;28;20547;-92
2021/07/02 10:14:01;;;;;;;12.82;5.40;;;26.90;99.90;;;;;;4167788;28;20192;-89
2021/07/02 10:16:05;;;;;;;14.75;6.10;;;26.10;99.90;;;;;;4184267;28;20213;-95
2021/07/02 10:18:10;;;;;;;16.30;6.38;;;25.20;99.90;;;;;;4167216;28;20215;-89
2021/07/02 10:20:13;;;;;;;12.45;5.88;;;24.80;99.90;;;;;;4167263;28;20203;-88
2021/07/02 10:22:18;;;;;;;9.43;5.75;;;24.50;99.90;;;;;;4167381;28;20603;-89
2021/07/02 10:24:19;;;;;;;10.77;5.80;;;24.10;99.90;;;;;;4151294;28;20176;-91
2021/07/02 10:26:21;;;;;;;12.63;6.38;;;24.10;99.90;;;;;;4167592;28;20177;-93